createdAt,value
2022-09-16T00:02:00.364Z,7.10
2022-09-16T00:04:27.551Z,7.38
2022-09-16T00:06:56.916Z,8.15
2022-09-16T00:09:23.989Z,4.07
2022-09-16T00:11:51.102Z,7.50
2022-09-16T00:14:18.164Z,6.13
2022-09-16T00:16:45.478Z,8.38
2022-09-16T00:19:13.247Z,4.78
2022-09-16T00:21:40.470Z,7.32
2022-09-16T00:24:07.788Z,7.15
2022-09-16T00:26:34.887Z,6.93
2022-09-16T00:29:04.302Z,3.92
2022-09-16T00:31:31.427Z,7.93
2022-09-16T00:33:58.592Z,8.55
2022-09-16T00:36:25.828Z,8.77
2022-09-16T00:38:55.007Z,7.80
2022-09-16T00:41:24.100Z,9.40
2022-09-16T00:43:54.238Z,6.38
2022-09-16T00:46:30.388Z,4.90
2022-09-16T00:49:01.186Z,6.18
2022-09-16T00:51:28.960Z,6.00
2022-09-16T00:53:59.409Z,4.25
2022-09-16T00:56:31.916Z,5.60
2022-09-16T00:59:22.039Z,5.30
2022-09-16T01:01:49.806Z,4.38
2022-09-16T01:04:22.916Z,5.35
2022-09-16T01:06:50.114Z,6.15
2022-09-16T01:09:17.658Z,7.13
2022-09-16T01:11:44.752Z,7.65
2022-09-16T01:14:31.072Z,6.28
2022-09-16T01:17:36.595Z,5.35
2022-09-16T01:20:23.325Z,5.60
2022-09-16T01:22:53.383Z,7.68
2022-09-16T01:25:35.568Z,7.60
2022-09-16T01:28:22.094Z,7.18
2022-09-16T01:30:54.119Z,8.13
2022-09-16T01:33:56.850Z,12.23
2022-09-16T01:36:26.860Z,5.90
2022-09-16T01:38:53.971Z,8.65
2022-09-16T01:41:21.047Z,5.43
2022-09-16T01:43:54.692Z,6.28
2022-09-16T01:46:21.739Z,4.40
2022-09-16T01:48:58.957Z,5.63
2022-09-16T01:51:32.950Z,7.45
2022-09-16T01:54:03.826Z,6.70
2022-09-16T01:56:57.178Z,5.22
2022-09-16T01:59:32.270Z,6.22
2022-09-16T02:02:22.806Z,6.38
2022-09-16T02:04:57.283Z,5.45
2022-09-16T02:07:27.009Z,7.60
2022-09-16T02:09:57.557Z,3.88
2022-09-16T02:12:28.171Z,8.38
2022-09-16T02:14:57.888Z,4.93
2022-09-16T02:17:27.672Z,8.13
2022-09-16T02:20:01.221Z,6.32
2022-09-16T02:24:55.487Z,7.95
2022-09-16T02:27:23.878Z,6.30
2022-09-16T02:29:56.270Z,7.43
2022-09-16T02:32:24.995Z,7.70
2022-09-16T02:34:54.626Z,7.88
2022-09-16T02:37:28.195Z,6.00
2022-09-16T02:42:24.113Z,6.10
2022-09-16T02:44:51.228Z,8.82
2022-09-16T02:47:21.294Z,7.18
2022-09-16T02:49:56.766Z,11.15
2022-09-16T02:52:37.204Z,6.80
2022-09-16T02:55:23.343Z,5.65
2022-09-16T02:57:51.063Z,6.32
2022-09-16T03:00:18.253Z,7.88
2022-09-16T03:02:46.103Z,12.65
2022-09-16T03:05:13.440Z,5.38
2022-09-16T03:07:41.512Z,6.45
2022-09-16T03:10:15.060Z,9.77
2022-09-16T03:15:12.190Z,5.57
2022-09-16T03:17:39.240Z,8.23
2022-09-16T03:20:12.804Z,6.38
2022-09-16T03:22:58.959Z,5.13
2022-09-16T03:25:28.865Z,9.27
2022-09-16T03:28:01.327Z,6.88
2022-09-16T03:30:31.134Z,6.97
2022-09-16T03:33:00.834Z,5.75
2022-09-16T03:35:33.456Z,7.40
2022-09-16T03:38:01.362Z,8.93
2022-09-16T03:40:30.106Z,8.07
2022-09-16T03:42:58.373Z,5.43
2022-09-16T03:45:25.457Z,5.32
2022-09-16T03:47:54.166Z,5.57
2022-09-16T03:50:21.763Z,8.95
2022-09-16T03:52:48.904Z,9.85
2022-09-16T03:55:17.000Z,6.88
2022-09-16T03:57:44.238Z,9.23
2022-09-16T04:00:11.804Z,10.93
2022-09-16T04:02:39.077Z,8.90
2022-09-16T04:05:06.483Z,8.88
2022-09-16T04:07:34.064Z,7.85
2022-09-16T04:10:01.948Z,6.25
2022-09-16T04:12:29.637Z,13.25
2022-09-16T04:14:57.162Z,5.78
2022-09-16T04:17:24.621Z,13.07
2022-09-16T04:19:53.074Z,6.00
2022-09-16T04:22:20.177Z,9.52
2022-09-16T04:24:50.067Z,7.90
2022-09-16T04:27:17.221Z,4.65
2022-09-16T04:29:44.260Z,8.75
2022-09-16T04:32:11.323Z,7.82
2022-09-16T04:34:38.484Z,7.78
2022-09-16T04:37:05.529Z,9.88
2022-09-16T04:39:32.769Z,11.90
2022-09-16T04:42:01.053Z,24.13
2022-09-16T04:44:30.356Z,36.28
2022-09-16T04:46:57.421Z,28.63
2022-09-16T04:49:24.657Z,25.70
2022-09-16T04:51:52.388Z,19.13
2022-09-16T04:54:19.592Z,8.15
2022-09-16T04:56:46.877Z,12.77
2022-09-16T04:59:14.047Z,9.90
2022-09-16T05:01:41.896Z,18.40
2022-09-16T05:04:10.414Z,14.98
2022-09-16T05:06:38.971Z,18.42
2022-09-16T05:09:06.452Z,27.73
2022-09-16T05:11:37.873Z,16.75
2022-09-16T05:14:06.506Z,17.77
2022-09-16T05:16:33.842Z,12.52
2022-09-16T05:19:04.583Z,18.23
2022-09-16T05:21:33.054Z,13.23
2022-09-16T05:24:01.418Z,14.20
2022-09-16T05:26:29.381Z,11.82
2022-09-16T05:28:56.490Z,14.18
2022-09-16T05:31:25.579Z,21.75
2022-09-16T05:33:57.195Z,18.35
2022-09-16T05:36:24.676Z,11.20
2022-09-16T05:39:18.145Z,12.45
2022-09-16T05:41:39.145Z,12.45
2022-09-16T05:44:09.605Z,10.45
2022-09-16T05:46:37.538Z,9.82
2022-09-16T05:49:05.107Z,11.27
2022-09-16T05:51:32.243Z,13.98
2022-09-16T05:54:00.052Z,13.90
2022-09-16T05:56:29.033Z,16.90
2022-09-16T05:58:57.257Z,23.33
2022-09-16T06:01:27.099Z,13.63
2022-09-16T06:03:55.161Z,14.57
2022-09-16T06:06:27.091Z,6.22
2022-09-16T06:08:55.126Z,8.75
2022-09-16T06:11:22.602Z,7.35
2022-09-16T06:13:55.679Z,8.40
2022-09-16T06:16:23.776Z,6.60
2022-09-16T06:18:50.847Z,15.15
2022-09-16T06:21:18.903Z,11.63
2022-09-16T06:23:45.973Z,8.77
2022-09-16T06:26:17.693Z,12.70
2022-09-16T06:28:45.887Z,14.02
2022-09-16T06:31:14.350Z,26.02
2022-09-16T06:33:41.700Z,12.35
2022-09-16T06:36:10.016Z,15.57
2022-09-16T06:38:37.375Z,14.73
2022-09-16T06:41:05.827Z,10.45
2022-09-16T06:43:32.908Z,9.98
2022-09-16T06:46:00.932Z,11.50
2022-09-16T06:48:28.248Z,7.35
2022-09-16T06:50:59.742Z,6.32
2022-09-16T06:53:26.858Z,13.45
2022-09-16T06:55:54.015Z,7.55
2022-09-16T06:58:21.119Z,11.70
2022-09-16T07:00:48.299Z,6.88
2022-09-16T07:03:15.407Z,7.80
2022-09-16T07:05:42.527Z,7.10
2022-09-16T07:08:09.577Z,4.65
2022-09-16T07:10:36.654Z,10.40
2022-09-16T07:13:04.321Z,8.48
2022-09-16T07:15:31.389Z,3.65
2022-09-16T07:17:58.514Z,2.53
2022-09-16T07:20:25.647Z,2.67
2022-09-16T07:22:54.021Z,3.75
2022-09-16T07:25:21.142Z,4.13
2022-09-16T07:27:48.351Z,2.33
2022-09-16T07:30:15.571Z,0.98
2022-09-16T07:32:42.801Z,2.58
2022-09-16T07:35:09.968Z,2.45
2022-09-16T07:37:41.934Z,2.40
2022-09-16T07:40:10.010Z,4.32
2022-09-16T07:42:37.138Z,4.70
2022-09-16T07:45:04.283Z,1.08
2022-09-16T07:47:31.452Z,2.72
2022-09-16T07:49:59.435Z,2.90
2022-09-16T07:52:29.370Z,4.45
2022-09-16T07:54:56.908Z,3.58
2022-09-16T07:57:24.478Z,3.08
2022-09-16T07:59:51.600Z,4.25
2022-09-16T08:02:18.802Z,4.25
2022-09-16T08:04:46.053Z,1.10
2022-09-16T08:07:13.126Z,1.05
2022-09-16T08:09:41.998Z,2.22
2022-09-16T08:12:14.711Z,4.97
2022-09-16T08:14:41.902Z,1.30
2022-09-16T08:17:08.970Z,2.45
2022-09-16T08:19:38.454Z,1.23
2022-09-16T08:22:05.905Z,3.15
2022-09-16T08:24:32.985Z,4.00
2022-09-16T08:27:00.152Z,0.57
2022-09-16T08:29:27.390Z,3.75
2022-09-16T08:31:54.617Z,5.07
2022-09-16T08:34:21.762Z,4.60
2022-09-16T08:36:48.899Z,4.13
2022-09-16T08:39:16.045Z,3.85
2022-09-16T08:41:56.189Z,0.63
2022-09-16T08:44:29.292Z,3.33
2022-09-16T08:47:03.582Z,2.40
2022-09-16T08:49:37.220Z,2.40
2022-09-16T08:52:14.324Z,1.02
2022-09-16T08:54:45.153Z,0.63
2022-09-16T08:57:15.272Z,2.17
2022-09-16T08:59:45.704Z,18.25
2022-09-16T09:02:19.123Z,2.20
2022-09-16T09:04:46.596Z,3.40
2022-09-16T09:07:13.762Z,2.45
2022-09-16T09:09:59.718Z,21.58
2022-09-16T09:12:40.925Z,2.00
2022-09-16T09:15:08.811Z,4.35
2022-09-16T09:17:48.684Z,6.80
2022-09-16T09:20:16.263Z,14.32
2022-09-16T09:23:08.306Z,12.48
2022-09-16T09:25:43.587Z,3.13
2022-09-16T09:28:22.502Z,22.17
2022-09-16T09:31:11.051Z,10.73
2022-09-16T09:33:46.818Z,3.65
2022-09-16T09:36:38.627Z,1.65
2022-09-16T09:39:10.794Z,6.32
2022-09-16T09:41:40.377Z,5.18
2022-09-16T09:44:30.820Z,2.03
2022-09-16T09:47:01.296Z,5.07
2022-09-16T09:49:37.699Z,4.53
2022-09-16T09:52:13.538Z,0.63
2022-09-16T09:54:44.638Z,1.20
2022-09-16T09:57:23.989Z,0.75
2022-09-16T10:00:05.808Z,2.65
2022-09-16T10:02:33.092Z,0.93
2022-09-16T10:05:01.933Z,0.63
2022-09-16T10:07:29.207Z,0.60
2022-09-16T10:10:01.783Z,3.88
2022-09-16T10:12:30.331Z,2.45
2022-09-16T10:14:57.517Z,0.85
2022-09-16T10:17:26.283Z,0.98
2022-09-16T10:19:54.931Z,7.18
2022-09-16T10:22:25.032Z,0.60
2022-09-16T10:24:56.413Z,2.40
2022-09-16T10:27:32.792Z,2.65
2022-09-16T10:32:59.017Z,8.93
2022-09-16T10:35:30.407Z,0.63
2022-09-16T10:38:05.980Z,2.08
2022-09-16T10:40:33.288Z,0.43
2022-09-16T10:43:08.556Z,2.83
2022-09-16T10:45:37.520Z,3.40
2022-09-16T10:48:08.303Z,3.58
2022-09-16T10:50:35.444Z,1.60
2022-09-16T10:53:02.549Z,3.25
2022-09-16T10:55:30.751Z,1.25
2022-09-16T10:58:15.143Z,1.02
2022-09-16T11:00:57.107Z,1.17
2022-09-16T11:03:27.331Z,2.55
2022-09-16T11:06:13.533Z,1.15
2022-09-16T11:08:53.054Z,1.05
2022-09-16T11:11:38.971Z,1.02
2022-09-16T11:14:13.456Z,0.35
2022-09-16T11:16:43.754Z,0.50
2022-09-16T11:19:25.966Z,0.28
2022-09-16T11:22:04.325Z,1.98
2022-09-16T11:24:31.406Z,0.50
2022-09-16T11:27:17.308Z,0.50
2022-09-16T11:29:55.881Z,0.20
2022-09-16T11:32:33.242Z,2.67
2022-09-16T11:35:05.515Z,0.30
2022-09-16T11:37:51.457Z,9.13
2022-09-16T11:40:29.164Z,0.47
2022-09-16T11:43:06.691Z,0.82
2022-09-16T11:45:42.996Z,1.20
2022-09-16T11:48:24.789Z,1.30
2022-09-16T11:51:01.425Z,1.60
2022-09-16T11:53:34.473Z,0.43
2022-09-16T11:56:09.471Z,1.15
2022-09-16T11:58:57.049Z,2.58
2022-09-16T12:01:27.235Z,2.45
2022-09-16T12:04:03.290Z,1.15
2022-09-16T12:06:35.143Z,0.45
2022-09-16T12:09:09.107Z,0.50
2022-09-16T12:11:41.371Z,0.40
2022-09-16T12:14:13.048Z,0.65
2022-09-16T12:16:48.611Z,3.70
2022-09-16T12:19:19.602Z,0.75
2022-09-16T12:21:47.064Z,1.45
2022-09-16T12:24:18.720Z,0.20
2022-09-16T12:26:48.881Z,0.20
2022-09-16T12:29:19.125Z,0.93
2022-09-16T12:32:05.230Z,8.95
2022-09-16T12:34:53.186Z,1.25
2022-09-16T12:37:28.804Z,5.70
2022-09-16T12:39:56.027Z,0.38
2022-09-16T12:42:45.982Z,1.70
2022-09-16T12:45:23.572Z,1.50
2022-09-16T12:47:58.776Z,1.10
2022-09-16T12:50:41.125Z,0.68
2022-09-16T12:53:20.313Z,0.85
2022-09-16T12:56:06.054Z,0.47
2022-09-16T12:58:49.460Z,2.97
2022-09-16T13:01:19.893Z,3.85
2022-09-16T13:03:49.147Z,0.40
2022-09-16T13:06:22.026Z,2.10
2022-09-16T13:08:49.312Z,1.08
2022-09-16T13:12:16.158Z,0.70
2022-09-16T13:14:16.253Z,1.60
2022-09-16T13:16:52.891Z,2.63
2022-09-16T13:19:21.305Z,1.05
2022-09-16T13:21:49.036Z,1.10
2022-09-16T13:24:25.693Z,0.55
2022-09-16T13:26:52.868Z,0.47
2022-09-16T13:29:40.598Z,1.10
2022-09-16T13:32:25.161Z,0.40
2022-09-16T13:35:06.071Z,1.20
2022-09-16T13:37:33.185Z,0.45
2022-09-16T13:40:09.814Z,9.82
2022-09-16T13:42:37.290Z,2.50
2022-09-16T13:45:04.522Z,0.28
2022-09-16T13:47:36.094Z,0.40
2022-09-16T13:50:08.733Z,0.30
2022-09-16T13:52:39.499Z,0.30
2022-09-16T13:55:11.715Z,0.63
2022-09-16T13:57:44.308Z,0.82
2022-09-16T14:00:11.638Z,2.17
2022-09-16T14:02:57.734Z,0.30
2022-09-16T14:05:44.421Z,1.80
2022-09-16T14:08:19.087Z,1.30
2022-09-16T14:10:49.263Z,2.20
2022-09-16T14:13:20.612Z,0.50
2022-09-16T14:15:50.576Z,1.23
2022-09-16T14:18:19.507Z,0.43
2022-09-16T14:20:54.985Z,0.70
2022-09-16T14:23:23.728Z,0.65
2022-09-16T14:25:52.297Z,0.82
2022-09-16T14:28:24.029Z,2.50
2022-09-16T14:30:53.224Z,1.65
2022-09-16T14:33:23.086Z,2.95
2022-09-16T14:35:50.611Z,1.40
2022-09-16T14:38:43.831Z,0.57
2022-09-16T14:41:08.297Z,0.82
2022-09-16T14:43:38.129Z,6.85
2022-09-16T14:46:07.529Z,7.43
2022-09-16T14:48:36.287Z,7.35
2022-09-16T14:51:03.929Z,4.95
2022-09-16T14:53:36.943Z,0.90
2022-09-16T14:56:06.008Z,0.70
2022-09-16T14:58:33.887Z,0.63
2022-09-16T15:01:08.874Z,1.65
2022-09-16T15:03:49.213Z,2.17
2022-09-16T15:06:18.281Z,1.40
2022-09-16T15:08:48.742Z,2.25
2022-09-16T15:11:29.939Z,0.28
2022-09-16T15:14:07.159Z,0.28
2022-09-16T15:16:34.810Z,2.95
2022-09-16T15:19:03.953Z,0.88
2022-09-16T15:21:33.338Z,0.90
2022-09-16T15:24:01.769Z,1.40
2022-09-16T15:26:31.972Z,1.05
2022-09-16T15:29:01.144Z,1.27
2022-09-16T15:31:34.888Z,0.43
2022-09-16T15:34:03.986Z,1.20
2022-09-16T15:36:34.259Z,1.33
2022-09-16T15:39:01.363Z,1.67
2022-09-16T15:41:28.733Z,0.40
2022-09-16T15:43:55.853Z,0.85
2022-09-16T15:46:23.759Z,0.30
2022-09-16T15:48:58.574Z,1.90
2022-09-16T15:51:33.744Z,1.10
2022-09-16T15:54:06.285Z,0.68
2022-09-16T15:56:35.418Z,1.77
2022-09-16T15:59:21.498Z,1.52
2022-09-16T16:01:53.457Z,2.70
2022-09-16T16:04:26.237Z,1.83
2022-09-16T16:06:55.744Z,0.85
2022-09-16T16:09:30.527Z,2.53
2022-09-16T16:11:58.352Z,2.83
2022-09-16T16:14:27.550Z,2.67
2022-09-16T16:17:12.242Z,2.25
2022-09-16T16:19:41.229Z,1.95
2022-09-16T16:22:09.059Z,0.70
2022-09-16T16:24:37.051Z,0.63
2022-09-16T16:27:04.778Z,2.20
2022-09-16T16:29:32.077Z,2.70
2022-09-16T16:32:03.270Z,2.35
2022-09-16T16:34:34.513Z,1.50
2022-09-16T16:37:01.812Z,2.33
2022-09-16T16:39:28.913Z,12.27
2022-09-16T16:41:55.987Z,12.88
2022-09-16T16:44:24.564Z,5.18
2022-09-16T16:46:52.557Z,6.07
2022-09-16T16:49:19.838Z,4.72
2022-09-16T16:51:49.579Z,7.00
2022-09-16T16:54:16.890Z,6.30
2022-09-16T16:56:44.065Z,3.58
2022-09-16T16:59:11.929Z,4.90
2022-09-16T17:01:39.264Z,7.07
2022-09-16T17:04:06.443Z,8.02
2022-09-16T17:06:35.031Z,3.95
2022-09-16T17:09:02.369Z,4.45
2022-09-16T17:11:30.198Z,6.93
2022-09-16T17:14:01.628Z,6.65
2022-09-16T17:16:29.271Z,4.88
2022-09-16T17:18:57.261Z,5.00
2022-09-16T17:21:25.645Z,4.32
2022-09-16T17:23:53.383Z,7.88
2022-09-16T17:26:21.242Z,9.45
2022-09-16T17:28:49.182Z,10.02
2022-09-16T17:31:17.829Z,7.43
2022-09-16T17:33:45.078Z,7.55
2022-09-16T17:36:13.889Z,10.88
2022-09-16T17:38:41.078Z,7.43
2022-09-16T17:41:09.271Z,8.15
2022-09-16T17:43:36.449Z,7.60
2022-09-16T17:46:05.129Z,8.73
2022-09-16T17:48:32.352Z,9.02
2022-09-16T17:50:59.890Z,9.25
2022-09-16T17:53:27.191Z,9.90
2022-09-16T17:56:01.766Z,12.18
2022-09-16T17:58:29.043Z,11.43
2022-09-16T18:00:56.219Z,6.40
2022-09-16T18:03:23.591Z,9.60
2022-09-16T18:05:51.469Z,6.85
2022-09-16T18:08:18.599Z,8.52
2022-09-16T18:10:54.493Z,9.65
2022-09-16T18:13:21.563Z,8.07
2022-09-16T18:15:48.941Z,9.27
2022-09-16T18:18:17.561Z,6.22
2022-09-16T18:20:45.104Z,8.00
2022-09-16T18:23:12.223Z,6.35
2022-09-16T18:25:39.388Z,5.40
2022-09-16T18:28:06.506Z,5.85
2022-09-16T18:30:33.619Z,5.07
2022-09-16T18:33:00.757Z,4.47
2022-09-16T18:35:27.834Z,4.75
2022-09-16T18:37:54.907Z,5.50
2022-09-16T18:40:22.087Z,6.30
2022-09-16T18:42:49.202Z,9.55
2022-09-16T18:45:16.345Z,9.38
2022-09-16T18:47:43.463Z,9.35
2022-09-16T18:50:13.218Z,9.55
2022-09-16T18:52:40.524Z,10.45
2022-09-16T18:55:07.751Z,10.52
2022-09-16T18:57:34.846Z,9.32
2022-09-16T19:00:02.362Z,9.95
2022-09-16T19:02:29.509Z,8.77
2022-09-16T19:04:56.609Z,11.95
2022-09-16T19:07:27.966Z,10.02
2022-09-16T19:09:55.492Z,9.30
2022-09-16T19:12:22.553Z,8.95
2022-09-16T19:14:49.953Z,7.47
2022-09-16T19:17:17.199Z,12.50
2022-09-16T19:19:44.314Z,6.45
2022-09-16T19:22:11.377Z,6.10
2022-09-16T19:24:38.520Z,7.10
2022-09-16T19:27:05.704Z,5.45
2022-09-16T19:29:32.871Z,6.35
2022-09-16T19:31:59.954Z,10.15
2022-09-16T19:34:27.113Z,10.10
2022-09-16T19:36:56.451Z,6.78
2022-09-16T19:39:23.988Z,7.00
2022-09-16T19:41:51.066Z,6.50
2022-09-16T19:44:19.020Z,6.03
2022-09-16T19:46:49.064Z,6.15
2022-09-16T19:49:17.900Z,8.35
2022-09-16T19:51:45.157Z,8.07
2022-09-16T19:54:16.022Z,5.65
2022-09-16T19:56:46.951Z,6.82
2022-09-16T20:01:44.075Z,6.15
2022-09-16T20:04:11.860Z,5.55
2022-09-16T20:06:40.612Z,7.78
2022-09-16T20:09:09.262Z,8.40
2022-09-16T20:11:37.874Z,7.68
2022-09-16T20:14:06.700Z,7.07
2022-09-16T20:19:58.874Z,5.55
2022-09-16T20:22:26.002Z,9.00
2022-09-16T20:25:06.486Z,7.03
2022-09-16T20:27:40.362Z,4.63
2022-09-16T20:30:07.856Z,5.85
2022-09-16T20:32:34.931Z,5.57
2022-09-16T20:35:01.998Z,5.57
2022-09-16T20:37:29.061Z,9.55
2022-09-16T20:39:56.564Z,8.35
2022-09-16T20:42:23.700Z,9.98
2022-09-16T20:44:50.790Z,14.10
2022-09-16T20:47:18.297Z,9.52
2022-09-16T20:49:45.422Z,9.77
2022-09-16T20:52:12.473Z,6.75
2022-09-16T20:54:39.573Z,6.15
2022-09-16T20:57:06.734Z,4.80
2022-09-16T20:59:34.071Z,11.43
2022-09-16T21:02:04.045Z,4.75
2022-09-16T21:04:31.201Z,7.38
2022-09-16T21:06:58.251Z,7.35
2022-09-16T21:09:25.313Z,7.00
2022-09-16T21:11:52.804Z,8.25
2022-09-16T21:14:21.712Z,3.70
2022-09-16T21:16:49.432Z,4.72
2022-09-16T21:19:17.854Z,5.28
2022-09-16T21:21:47.404Z,7.75
2022-09-16T21:24:14.893Z,5.70
2022-09-16T21:26:43.811Z,4.72
2022-09-16T21:29:12.656Z,4.93
2022-09-16T21:31:40.972Z,7.30
2022-09-16T21:34:11.364Z,7.00
2022-09-16T21:36:40.187Z,10.05
2022-09-16T21:39:07.995Z,6.05
2022-09-16T21:41:35.040Z,7.63
2022-09-16T21:44:02.222Z,5.95
2022-09-16T21:46:31.705Z,3.92
2022-09-16T21:49:02.091Z,10.55
2022-09-16T21:51:35.182Z,6.15
2022-09-16T21:54:03.298Z,8.73
2022-09-16T21:56:31.050Z,8.48
2022-09-16T21:58:58.504Z,9.68
2022-09-16T22:01:27.856Z,7.35
2022-09-16T22:03:56.181Z,4.15
2022-09-16T22:06:25.471Z,3.65
2022-09-16T22:08:53.603Z,7.32
2022-09-16T22:11:21.512Z,5.78
2022-09-16T22:13:49.086Z,4.88
2022-09-16T22:16:18.417Z,5.40
2022-09-16T22:18:45.667Z,8.20
2022-09-16T22:21:13.769Z,4.07
2022-09-16T22:23:41.182Z,5.45
2022-09-16T22:26:09.366Z,6.22
2022-09-16T22:28:36.711Z,7.32
2022-09-16T22:31:07.183Z,9.02
2022-09-16T22:33:35.011Z,12.23
2022-09-16T22:36:05.695Z,13.60
2022-09-16T22:38:32.796Z,20.25
2022-09-16T22:41:03.523Z,24.83
2022-09-16T22:43:35.084Z,16.90
2022-09-16T22:46:06.118Z,15.98
2022-09-16T22:48:33.577Z,9.82
2022-09-16T22:51:01.044Z,10.80
2022-09-16T22:53:29.118Z,10.80
2022-09-16T22:56:00.243Z,9.18
2022-09-16T22:58:27.982Z,5.88
2022-09-16T23:01:02.161Z,6.28
2022-09-16T23:03:29.330Z,5.82
2022-09-16T23:05:57.609Z,14.63
2022-09-16T23:08:25.696Z,12.27
2022-09-16T23:10:53.991Z,6.40
2022-09-16T23:13:21.735Z,7.32
2022-09-16T23:15:49.421Z,7.70
2022-09-16T23:18:18.686Z,10.13
2022-09-16T23:20:45.776Z,7.43
2022-09-16T23:23:12.811Z,7.20
2022-09-16T23:25:39.882Z,6.70
2022-09-16T23:28:06.921Z,12.98
2022-09-16T23:30:34.141Z,9.73
2022-09-16T23:33:01.180Z,7.00
2022-09-16T23:35:28.249Z,11.20
2022-09-16T23:37:57.573Z,11.13
2022-09-16T23:40:27.428Z,6.10
2022-09-16T23:42:56.077Z,7.80
2022-09-16T23:45:23.554Z,6.13
2022-09-16T23:47:50.658Z,8.23
2022-09-16T23:50:17.742Z,6.00
2022-09-16T23:52:44.855Z,6.30
2022-09-16T23:55:11.992Z,4.75
2022-09-16T23:57:39.036Z,9.18
